Time;durP1;ratioP1;P1;durP2;ratioP2;P2;SDS_P1;SDS_P2;PMS_P1;PMS_P2;Temp;Humidity;BMP_temperature;BMP_pressure;BME280_temperature;BME280_humidity;BME280_pressure;Samples;Min_cycle;Max_cycle;Signal;HPM_P1;HPM_P2
2022/07/07 00:00:26;;;;;;;7.93;7.30;;;;;;;23.57;59.96;99242.50;5071629;28;20188;-64
2022/07/07 00:02:52;;;;;;;8.17;7.43;;;;;;;23.56;59.42;99246.00;5071547;28;20216;-64
2022/07/07 00:05:19;;;;;;;8.23;7.53;;;;;;;23.56;59.58;99244.25;5071829;28;20188;-65
2022/07/07 00:07:46;;;;;;;7.50;6.90;;;;;;;23.52;59.28;99237.41;5071822;28;20203;-65
2022/07/07 00:10:13;;;;;;;7.60;7.00;;;;;;;23.53;59.54;99231.25;5071477;28;20192;-63
2022/07/07 00:12:40;;;;;;;7.30;6.70;;;;;;;23.56;58.66;99235.53;5071331;28;20192;-64
2022/07/07 00:15:09;;;;;;;7.80;6.90;;;;;;;23.60;58.11;99231.84;5071855;28;20601;-64
2022/07/07 00:17:37;;;;;;;6.67;6.17;;;;;;;23.60;57.91;99229.22;5071283;28;20198;-63
2022/07/07 00:20:05;;;;;;;7.23;6.70;;;;;;;23.67;57.17;99231.56;5071411;28;20207;-64
2022/07/07 00:22:32;;;;;;;7.07;6.43;;;;;;;23.71;57.20;99227.00;5070543;28;20238;-63
2022/07/07 00:24:59;;;;;;;6.87;6.37;;;;;;;23.74;56.74;99229.50;5070999;28;20192;-65
2022/07/07 00:27:26;;;;;;;6.93;6.43;;;;;;;23.77;56.51;99232.00;5070926;28;20199;-63
2022/07/07 00:29:53;;;;;;;6.88;6.28;;;;;;;23.79;56.77;99235.41;5070709;28;20441;-64
2022/07/07 00:32:20;;;;;;;7.10;6.40;;;;;;;23.86;56.22;99232.50;5070904;28;20206;-63
2022/07/07 00:34:48;;;;;;;7.57;6.90;;;;;;;23.82;56.40;99219.56;5071017;28;20192;-63
2022/07/07 00:37:14;;;;;;;7.63;7.00;;;;;;;23.84;55.78;99236.13;5070740;28;20191;-64
2022/07/07 00:39:41;;;;;;;7.47;6.80;;;;;;;23.82;56.08;99240.53;5070755;28;20621;-63
2022/07/07 00:42:14;;;;;;;6.90;6.40;;;;;;;23.82;56.19;99228.28;5070501;28;20313;-63
2022/07/07 00:44:41;;;;;;;6.80;6.20;;;;;;;23.80;56.40;99235.38;5070877;28;20196;-64
2022/07/07 00:47:08;;;;;;;7.37;6.87;;;;;;;23.74;56.28;99225.13;5070684;28;20196;-65
2022/07/07 00:49:38;;;;;;;6.67;6.17;;;;;;;23.75;56.75;99224.22;5070815;28;20203;-64
2022/07/07 00:52:07;;;;;;;7.53;6.70;;;;;;;23.74;56.28;99222.50;5070366;28;20444;-65
2022/07/07 00:54:35;;;;;;;7.30;6.80;;;;;;;23.74;56.74;99224.25;5068934;28;20286;-64
2022/07/07 00:57:03;;;;;;;7.03;6.43;;;;;;;23.65;56.55;99217.63;5071064;28;20199;-65
2022/07/07 00:59:30;;;;;;;7.17;6.57;;;;;;;23.60;56.70;99206.47;5070914;28;20332;-64
2022/07/07 01:01:58;;;;;;;7.53;6.93;;;;;;;23.53;56.98;99209.41;5064939;28;20562;-65
2022/07/07 01:04:25;;;;;;;6.47;6.07;;;;;;;23.54;56.87;99217.22;5062555;28;20200;-63
2022/07/07 01:06:52;;;;;;;7.40;6.70;;;;;;;23.46;57.44;99217.53;5060628;28;20192;-58
2022/07/07 01:09:22;;;;;;;7.93;7.23;;;;;;;23.44;57.70;99224.63;5060255;28;20279;-65
2022/07/07 01:11:52;;;;;;;7.60;6.90;;;;;;;23.40;57.77;99224.81;5058425;28;20192;-58
2022/07/07 01:14:19;;;;;;;7.37;6.77;;;;;;;23.36;57.66;99220.56;5058984;28;20184;-58
2022/07/07 01:16:47;;;;;;;6.87;6.27;;;;;;;23.34;58.24;99231.13;5060227;28;20187;-58
2022/07/07 01:19:15;;;;;;;7.10;6.50;;;;;;;23.30;58.16;99226.03;5058978;28;20199;-58
2022/07/07 01:21:53;;;;;;;10.60;6.93;;;;;;;23.23;58.59;99214.09;5058937;28;20183;-58
2022/07/07 01:24:22;;;;;;;7.30;6.77;;;;;;;23.20;58.65;99220.31;5062114;28;20693;-58
2022/07/07 01:26:49;;;;;;;7.37;6.67;;;;;;;23.23;58.66;99228.06;5069807;28;20531;-58
2022/07/07 01:29:16;;;;;;;7.33;6.77;;;;;;;23.20;59.05;99222.94;5070053;28;20221;-58
2022/07/07 01:31:42;;;;;;;7.78;7.22;;;;;;;23.28;58.61;99226.09;5069349;28;20445;-58
2022/07/07 01:34:09;;;;;;;6.90;6.40;;;;;;;23.31;58.27;99214.66;5069650;28;20188;-58
2022/07/07 01:36:36;;;;;;;7.50;7.00;;;;;;;23.33;58.42;99231.16;5069857;28;20245;-58
2022/07/07 01:39:03;;;;;;;6.60;6.20;;;;;;;23.35;58.47;99226.69;5069757;28;20199;-58
2022/07/07 01:41:31;;;;;;;7.30;6.80;;;;;;;23.29;58.49;99224.34;5070061;28;20202;-58
2022/07/07 01:43:58;;;;;;;6.83;6.30;;;;;;;23.32;58.72;99226.84;5069809;28;20219;-58
2022/07/07 01:46:25;;;;;;;7.40;6.90;;;;;;;23.27;58.99;99226.16;5069830;28;20192;-58
2022/07/07 01:48:51;;;;;;;7.23;6.63;;;;;;;23.24;59.35;99221.06;5069811;28;20202;-58
2022/07/07 01:51:18;;;;;;;7.73;7.13;;;;;;;23.23;59.05;99222.81;5069845;28;20198;-58
2022/07/07 01:53:45;;;;;;;7.63;6.83;;;;;;;23.18;59.29;99221.28;5069572;28;20195;-58
2022/07/07 01:56:12;;;;;;;7.33;6.83;;;;;;;23.14;59.58;99222.31;5069930;28;20191;-58
2022/07/07 01:58:40;;;;;;;7.80;7.03;;;;;;;23.17;59.47;99216.94;5069503;28;20249;-58
2022/07/07 02:01:07;;;;;;;7.97;7.30;;;;;;;23.10;59.85;99216.31;5069546;28;20207;-58
2022/07/07 02:03:34;;;;;;;7.03;6.53;;;;;;;23.10;59.82;99216.31;5069357;28;20219;-58
2022/07/07 02:06:01;;;;;;;7.47;6.77;;;;;;;23.08;60.14;99217.28;5069715;28;20348;-58
2022/07/07 02:08:28;;;;;;;7.10;6.40;;;;;;;23.10;60.20;99225.97;5069734;28;20222;-58
2022/07/07 02:13:41;;;;;;;7.23;6.60;;;;;;;23.01;60.81;99223.69;5069663;28;20234;-58
2022/07/07 02:16:08;;;;;;;6.87;6.30;;;;;;;23.05;60.77;99225.28;5069581;28;20192;-58
2022/07/07 02:18:36;;;;;;;7.00;6.50;;;;;;;23.05;60.84;99225.28;5069399;28;20196;-58
2022/07/07 02:21:05;;;;;;;7.20;6.60;;;;;;;22.98;60.52;99211.56;5073440;28;20195;-56
2022/07/07 02:23:32;;;;;;;7.65;6.53;;;;;;;22.99;60.77;99221.13;5072958;28;20521;-57
2022/07/07 02:25:59;;;;;;;7.50;6.80;;;;;;;23.03;61.01;99227.97;5066252;28;20207;-58
2022/07/07 02:28:26;;;;;;;6.83;6.20;;;;;;;22.94;60.96;99220.44;5053192;28;20196;-57
2022/07/07 02:30:55;;;;;;;7.23;6.73;;;;;;;23.04;60.94;99229.69;5052929;28;20188;-58
2022/07/07 02:33:23;;;;;;;6.93;6.47;;;;;;;23.02;61.24;99234.13;5052956;28;20184;-55
2022/07/07 02:35:51;;;;;;;7.20;6.60;;;;;;;22.99;61.34;99238.63;5053218;28;20192;-56
2022/07/07 02:38:18;;;;;;;6.90;6.20;;;;;;;22.82;61.65;99215.69;5053143;28;20552;-56
2022/07/07 02:40:45;;;;;;;7.37;6.77;;;;;;;22.99;61.96;99244.72;5052817;28;20195;-57
2022/07/07 02:43:13;;;;;;;7.97;7.27;;;;;;;22.94;62.12;99236.16;5052802;28;20215;-56
2022/07/07 02:45:41;;;;;;;7.83;6.73;;;;;;;22.75;62.10;99220.28;5052689;28;20282;-56
2022/07/07 02:48:10;;;;;;;7.67;6.97;;;;;;;22.90;62.20;99242.47;5052330;28;20435;-56
2022/07/07 02:50:37;;;;;;;7.00;6.50;;;;;;;22.93;61.98;99244.97;5052718;28;20198;-57
2022/07/07 02:53:03;;;;;;;7.90;7.23;;;;;;;22.94;62.05;99244.03;5052926;28;20188;-56
2022/07/07 02:55:31;;;;;;;7.40;6.80;;;;;;;22.95;62.06;99245.75;5052466;28;20192;-57
2022/07/07 02:57:58;;;;;;;7.13;6.63;;;;;;;22.97;62.35;99243.91;5052571;28;20387;-57
2022/07/07 03:00:26;;;;;;;7.57;7.07;;;;;;;22.88;62.67;99237.25;5052554;28;20196;-57
2022/07/07 03:02:53;;;;;;;7.47;6.97;;;;;;;22.96;62.24;99237.00;5051818;28;20500;-57
2022/07/07 03:05:22;;;;;;;7.83;7.13;;;;;;;22.95;62.63;99247.50;5052433;28;20192;-57
2022/07/07 03:07:49;;;;;;;7.83;7.33;;;;;;;23.08;62.08;99249.59;5052774;28;20192;-57
2022/07/07 03:10:16;;;;;;;7.53;6.83;;;;;;;23.27;61.32;99239.25;5052679;28;20200;-57
2022/07/07 03:12:43;;;;;;;7.10;6.60;;;;;;;23.42;60.82;99238.69;5052591;28;20196;-57
2022/07/07 03:15:11;;;;;;;8.00;5.97;;;;;;;23.54;60.29;99242.59;5052355;28;20188;-57
2022/07/07 03:17:42;;;;;;;7.30;6.80;;;;;;;23.55;59.54;99245.16;5052663;28;20370;-57
2022/07/07 03:20:10;;;;;;;7.57;6.87;;;;;;;23.60;59.00;99242.34;5052278;28;20391;-57
2022/07/07 03:22:39;;;;;;;7.20;6.70;;;;;;;23.63;59.55;99244.84;5052056;28;20236;-57
2022/07/07 03:25:07;;;;;;;6.90;6.30;;;;;;;23.68;59.08;99243.72;5051954;28;20216;-57
2022/07/07 03:27:35;;;;;;;7.18;6.57;;;;;;;23.78;58.62;99237.22;5051325;28;20784;-57
2022/07/07 03:30:02;;;;;;;10.20;6.37;;;;;;;23.77;58.05;99237.25;5051649;28;20279;-57
2022/07/07 03:32:28;;;;;;;7.17;6.57;;;;;;;23.81;57.93;99241.47;5051982;28;20246;-57
2022/07/07 03:34:55;;;;;;;7.03;6.43;;;;;;;23.92;57.79;99240.13;5051898;28;20188;-57
2022/07/07 03:37:22;;;;;;;6.60;6.20;;;;;;;23.97;57.29;99248.66;5051748;28;20193;-57
2022/07/07 03:39:51;;;;;;;7.40;6.77;;;;;;;24.05;56.87;99237.81;5051886;28;20572;-56
2022/07/07 03:42:17;;;;;;;6.63;6.18;;;;;;;24.12;56.89;99236.66;5050711;28;20825;-56
2022/07/07 03:44:44;;;;;;;7.30;6.70;;;;;;;24.16;56.58;99233.00;5051584;28;20599;-56
2022/07/07 03:47:13;;;;;;;7.30;6.70;;;;;;;24.24;56.78;99237.91;5051821;28;20192;-56
2022/07/07 03:49:40;;;;;;;7.77;6.53;;;;;;;24.32;56.19;99238.44;5051766;28;20188;-57
2022/07/07 03:52:07;;;;;;;6.93;6.33;;;;;;;24.37;56.03;99236.44;5051579;28;20659;-56
2022/07/07 03:54:34;;;;;;;7.17;6.57;;;;;;;24.29;56.43;99236.78;5051484;28;20195;-56
2022/07/07 03:57:02;;;;;;;6.87;6.27;;;;;;;24.33;55.97;99245.41;5051582;28;20222;-56
2022/07/07 03:59:29;;;;;;;7.13;6.63;;;;;;;24.40;56.00;99244.19;5051344;28;20196;-56
2022/07/07 04:01:55;;;;;;;6.93;6.30;;;;;;;24.38;55.44;99243.44;5051162;28;20192;-57
2022/07/07 04:04:22;;;;;;;6.97;6.00;;;;;;;24.27;55.68;99243.91;5051207;28;20224;-57
2022/07/07 04:06:49;;;;;;;7.38;6.68;;;;;;;24.30;55.80;99245.53;5050219;28;20930;-57
2022/07/07 04:09:16;;;;;;;7.07;6.57;;;;;;;24.42;55.93;99245.00;5068496;28;20198;-57
2022/07/07 04:11:43;;;;;;;7.30;6.57;;;;;;;24.34;56.22;99245.31;5070850;28;20187;-58
2022/07/07 04:14:11;;;;;;;7.40;6.80;;;;;;;24.34;55.97;99239.22;5068794;28;20196;-58
2022/07/07 04:16:38;;;;;;;7.57;7.00;;;;;;;24.40;55.42;99254.72;5065397;28;20253;-58
2022/07/07 04:19:05;;;;;;;7.53;6.97;;;;;;;24.44;55.46;99253.66;5062171;28;20228;-58
2022/07/07 04:21:32;;;;;;;10.83;6.57;;;;;;;24.36;55.62;99254.00;5059335;28;20636;-57
2022/07/07 04:23:59;;;;;;;7.53;6.83;;;;;;;24.29;55.80;99260.44;5060988;28;20308;-58
2022/07/07 04:26:26;;;;;;;7.53;7.00;;;;;;;24.34;56.00;99257.59;5060971;28;20188;-64
2022/07/07 04:28:53;;;;;;;7.43;6.73;;;;;;;24.31;56.23;99269.09;5059402;28;20188;-64
2022/07/07 04:31:21;;;;;;;7.47;6.87;;;;;;;24.35;56.04;99267.19;5061396;28;20274;-64
2022/07/07 04:33:48;;;;;;;7.23;6.73;;;;;;;24.40;56.19;99265.22;5061482;28;20598;-64
2022/07/07 04:36:15;;;;;;;7.93;7.23;;;;;;;24.37;56.62;99263.56;5059925;28;20211;-63
2022/07/07 04:38:42;;;;;;;6.63;6.13;;;;;;;24.50;56.16;99270.00;5071192;28;20203;-63
2022/07/07 04:41:08;;;;;;;7.77;7.27;;;;;;;24.58;56.35;99265.25;5070175;28;20582;-64
2022/07/07 04:43:35;;;;;;;7.77;6.97;;;;;;;24.56;56.36;99258.38;5070260;28;20196;-62
2022/07/07 04:46:02;;;;;;;7.30;6.60;;;;;;;24.48;56.32;99260.47;5071241;28;20180;-63
2022/07/07 04:48:30;;;;;;;7.47;6.97;;;;;;;24.52;56.80;99270.81;5070774;28;20191;-64
2022/07/07 04:50:57;;;;;;;8.00;7.40;;;;;;;24.45;56.10;99265.88;5070909;28;20230;-64
2022/07/07 04:53:24;;;;;;;7.37;6.80;;;;;;;24.55;56.27;99267.19;5070459;28;20191;-64
2022/07/07 04:55:51;;;;;;;7.97;7.23;;;;;;;24.50;56.73;99263.91;5070815;28;20222;-63
2022/07/07 04:58:17;;;;;;;8.17;7.37;;;;;;;24.50;56.53;99254.22;5070575;28;20919;-64
2022/07/07 05:00:44;;;;;;;6.67;6.07;;;;;;;24.39;56.35;99256.47;5070741;28;20225;-64
2022/07/07 05:03:11;;;;;;;7.30;6.70;;;;;;;24.48;56.62;99263.09;5070078;28;20187;-63
2022/07/07 05:05:39;;;;;;;10.00;6.60;;;;;;;24.59;56.36;99255.59;5070668;28;20219;-64
2022/07/07 05:08:06;;;;;;;7.33;6.63;;;;;;;24.70;56.03;99255.97;5070240;28;20198;-64
2022/07/07 05:10:33;;;;;;;6.70;6.20;;;;;;;24.71;55.67;99259.47;5070017;28;20191;-64
2022/07/07 05:13:00;;;;;;;6.93;6.37;;;;;;;24.76;55.70;99258.34;5070374;28;20195;-63
2022/07/07 05:15:26;;;;;;;6.67;6.00;;;;;;;24.72;55.46;99259.41;5070069;28;20199;-64
2022/07/07 05:17:53;;;;;;;7.60;5.87;;;;;;;24.82;55.24;99260.72;5063014;28;20538;-64
2022/07/07 05:20:20;;;;;;;8.10;6.77;;;;;;;24.87;55.26;99258.75;5051136;28;20184;-64
2022/07/07 05:22:48;;;;;;;6.65;6.15;;;;;;;24.91;55.50;99251.59;5063978;28;20453;-64
2022/07/07 05:25:15;;;;;;;6.30;5.43;;;;;;;25.02;54.79;99259.81;5059748;28;20705;-64
2022/07/07 05:27:44;;;;;;;6.97;6.27;;;;;;;25.08;54.73;99268.25;5060524;28;20598;-64
2022/07/07 05:30:12;;;;;;;7.10;5.67;;;;;;;25.17;54.39;99264.34;5062909;28;20191;-64
2022/07/07 05:32:39;;;;;;;6.30;5.70;;;;;;;25.21;54.42;99276.47;5069938;28;20654;-63
2022/07/07 05:35:06;;;;;;;6.70;6.00;;;;;;;25.12;54.91;99266.34;5069977;28;20183;-64
2022/07/07 05:37:33;;;;;;;6.57;6.05;;;;;;;25.29;54.27;99262.94;5068550;28;20450;-64
2022/07/07 05:40:01;;;;;;;6.13;5.53;;;;;;;25.31;53.44;99268.97;5070073;28;20196;-64
2022/07/07 05:42:28;;;;;;;6.10;5.60;;;;;;;25.44;53.79;99265.69;5069151;28;20202;-64
2022/07/07 05:44:55;;;;;;;5.67;5.27;;;;;;;25.35;53.71;99274.03;5069718;28;20215;-65
2022/07/07 05:47:22;;;;;;;6.30;5.57;;;;;;;25.38;53.73;99275.66;5069871;28;20200;-64
2022/07/07 05:49:49;;;;;;;6.03;5.53;;;;;;;25.39;54.14;99274.72;5067180;28;20203;-64
2022/07/07 05:52:15;;;;;;;6.10;5.70;;;;;;;25.42;53.25;99278.06;5058148;28;20195;-65
2022/07/07 05:54:42;;;;;;;6.23;5.67;;;;;;;25.48;53.69;99276.97;5061962;28;20673;-64
2022/07/07 05:57:11;;;;;;;6.33;5.77;;;;;;;25.56;52.87;99282.69;5063661;28;20194;-64
2022/07/07 05:59:37;;;;;;;5.87;5.37;;;;;;;25.56;52.48;99273.03;5064308;28;20192;-64
2022/07/07 06:02:05;;;;;;;6.13;5.43;;;;;;;25.58;52.40;99279.06;5062663;28;20440;-64
2022/07/07 06:04:31;;;;;;;9.03;5.93;;;;;;;25.73;52.21;99278.34;5068483;28;20473;-64
2022/07/07 06:06:58;;;;;;;5.55;5.05;;;;;;;25.83;51.69;99275.25;5073097;28;20200;-64
2022/07/07 06:09:25;;;;;;;6.67;4.90;;;;;;;25.85;51.29;99276.03;5073570;28;20571;-64
2022/07/07 06:11:52;;;;;;;6.43;5.40;;;;;;;25.80;51.78;99273.63;5064550;28;20667;-65
2022/07/07 06:14:21;;;;;;;4.72;4.30;;;;;;;25.93;51.22;99290.50;5072846;28;20708;-64
2022/07/07 06:16:48;;;;;;;4.80;4.40;;;;;;;25.87;51.27;99275.03;5056128;28;20949;-64
2022/07/07 06:19:15;;;;;;;5.10;4.70;;;;;;;25.99;50.67;99290.22;5070194;28;20257;-65
2022/07/07 06:21:42;;;;;;;6.10;5.00;;;;;;;26.12;50.36;99293.91;5072820;28;20210;-64
2022/07/07 06:24:10;;;;;;;4.40;4.00;;;;;;;26.04;49.99;99285.56;5073286;28;20786;-64
2022/07/07 06:26:37;;;;;;;4.85;4.45;;;;;;;26.12;50.36;99286.03;5059666;28;20204;-64
2022/07/07 06:29:04;;;;;;;5.05;4.63;;;;;;;26.07;49.83;99288.03;5053721;28;20261;-64
2022/07/07 06:31:33;;;;;;;5.03;4.53;;;;;;;26.23;49.50;99282.91;5053269;28;20447;-64
2022/07/07 06:34:00;;;;;;;5.47;4.18;;;;;;;26.26;48.97;99285.38;5052157;28;20246;-64
2022/07/07 06:36:28;;;;;;;5.18;4.25;;;;;;;26.32;48.80;99278.00;5052866;28;20560;-64
2022/07/07 06:38:55;;;;;;;5.18;4.18;;;;;;;26.23;49.07;99280.28;5066951;28;20465;-64
2022/07/07 06:41:23;;;;;;;4.40;4.00;;;;;;;26.23;48.96;99277.63;5072845;28;20210;-64
2022/07/07 06:43:50;;;;;;;4.75;4.40;;;;;;;26.29;48.75;99274.66;5072919;28;20214;-64
2022/07/07 06:46:17;;;;;;;5.17;4.53;;;;;;;26.43;48.59;99289.75;5071208;28;20445;-64
2022/07/07 06:48:45;;;;;;;6.47;3.97;;;;;;;26.54;47.90;99282.16;5071308;28;20260;-64
2022/07/07 06:51:12;;;;;;;4.45;4.05;;;;;;;26.49;47.83;99289.47;5070955;28;20229;-63
2022/07/07 06:53:39;;;;;;;8.40;4.40;;;;;;;26.57;47.60;99287.28;5069458;28;20200;-64
2022/07/07 06:56:06;;;;;;;5.45;4.22;;;;;;;26.55;47.09;99282.09;5071457;28;20502;-63
2022/07/07 06:58:33;;;;;;;5.07;4.57;;;;;;;26.68;47.61;99277.03;5072044;28;20192;-63
2022/07/07 07:01:00;;;;;;;4.32;4.03;;;;;;;26.70;47.34;99275.19;5072623;28;20191;-63
2022/07/07 07:03:27;;;;;;;4.55;4.13;;;;;;;26.81;47.46;99281.59;5072605;28;20196;-64
2022/07/07 07:05:55;;;;;;;4.67;4.33;;;;;;;26.87;46.85;99273.38;5071850;28;20215;-64
2022/07/07 07:08:22;;;;;;;5.95;4.38;;;;;;;26.82;46.91;99288.59;5072387;28;20309;-63
2022/07/07 07:10:49;;;;;;;3.77;3.57;;;;;;;26.79;46.47;99280.84;5071947;28;20191;-64
2022/07/07 07:13:16;;;;;;;4.85;4.38;;;;;;;26.85;46.16;99277.88;5067092;28;20195;-64
2022/07/07 07:15:44;;;;;;;4.72;3.95;;;;;;;26.95;45.74;99280.84;5057082;28;20209;-63
2022/07/07 07:18:11;;;;;;;5.53;4.70;;;;;;;26.85;45.87;99284.94;5069454;28;20685;-64
2022/07/07 07:20:40;;;;;;;4.60;4.20;;;;;;;26.76;46.30;99277.47;5070951;28;20432;-64
2022/07/07 07:23:08;;;;;;;4.40;4.00;;;;;;;26.91;46.06;99277.56;5071825;28;20628;-64
2022/07/07 07:25:35;;;;;;;6.43;4.00;;;;;;;27.10;45.69;99292.38;5069439;28;20207;-64
2022/07/07 07:28:02;;;;;;;4.40;4.10;;;;;;;27.06;45.60;99289.03;5062286;28;20665;-64
2022/07/07 07:30:29;;;;;;;5.73;4.10;;;;;;;27.04;44.79;99290.91;5061180;28;20188;-64
2022/07/07 07:32:56;;;;;;;4.60;4.20;;;;;;;27.03;45.55;99281.28;5060996;28;20187;-63
2022/07/07 07:35:22;;;;;;;4.65;4.30;;;;;;;27.08;44.58;99281.06;5061474;28;20437;-64
2022/07/07 07:37:49;;;;;;;5.13;4.63;;;;;;;27.16;44.82;99282.34;5061343;28;20192;-64
2022/07/07 07:40:17;;;;;;;10.68;4.35;;;;;;;27.30;44.33;99285.09;5060890;28;20192;-65
2022/07/07 07:42:44;;;;;;;5.50;4.65;;;;;;;27.36;44.44;99292.63;5060708;28;20588;-65
2022/07/07 07:45:11;;;;;;;4.53;4.22;;;;;;;27.33;44.23;99295.44;5061271;28;20218;-64
2022/07/07 07:47:39;;;;;;;6.63;4.53;;;;;;;27.37;43.91;99283.81;5062078;28;20192;-64
2022/07/07 07:50:07;;;;;;;5.03;4.18;;;;;;;27.45;43.50;99278.13;5061118;28;20453;-64
2022/07/07 07:52:34;;;;;;;6.90;4.18;;;;;;;27.48;43.33;99268.25;5061327;28;20192;-63
2022/07/07 07:55:01;;;;;;;4.75;4.30;;;;;;;27.59;43.01;99272.06;5068866;28;20195;-64
2022/07/07 07:57:29;;;;;;;10.40;4.65;;;;;;;27.62;42.90;99283.31;5069462;28;20443;-63
2022/07/07 07:59:56;;;;;;;4.75;4.45;;;;;;;27.61;43.06;99270.22;5064552;28;20198;-64
2022/07/07 08:02:23;;;;;;;4.80;4.50;;;;;;;27.64;43.45;99276.16;5061771;28;20207;-65
2022/07/07 08:04:50;;;;;;;12.07;4.47;;;;;;;27.50;42.63;99239.97;5066919;28;20223;-65
2022/07/07 08:07:17;;;;;;;4.75;4.32;;;;;;;27.79;42.72;99272.66;5060270;28;20190;-64
2022/07/07 08:09:44;;;;;;;4.80;4.40;;;;;;;27.73;42.48;99272.13;5062019;28;20635;-64
2022/07/07 08:12:11;;;;;;;4.75;4.35;;;;;;;27.87;43.02;99269.56;5065371;28;20823;-65
2022/07/07 08:14:40;;;;;;;5.32;4.30;;;;;;;28.01;42.24;99277.53;5062135;28;20851;-64
2022/07/07 08:17:08;;;;;;;4.75;4.35;;;;;;;28.20;42.38;99277.34;5059149;28;20196;-64
2022/07/07 08:19:34;;;;;;;5.60;4.30;;;;;;;28.20;40.97;99272.91;5060264;28;20558;-64
2022/07/07 08:22:01;;;;;;;10.93;4.57;;;;;;;28.25;41.90;99262.91;5060967;28;20183;-63
2022/07/07 08:24:28;;;;;;;5.15;4.35;;;;;;;28.39;41.84;99264.72;5060254;28;20181;-64
2022/07/07 08:26:55;;;;;;;4.70;4.20;;;;;;;28.42;40.51;99268.03;5059441;28;20206;-64
2022/07/07 08:29:22;;;;;;;7.43;4.72;;;;;;;28.42;41.38;99264.53;5061294;28;20187;-65
2022/07/07 08:31:50;;;;;;;5.03;4.07;;;;;;;28.43;40.81;99259.16;5060054;28;20184;-64
2022/07/07 08:34:17;;;;;;;4.60;4.20;;;;;;;28.45;39.81;99262.56;5058906;28;20669;-64
2022/07/07 08:36:44;;;;;;;5.10;4.60;;;;;;;28.49;41.19;99258.78;5062159;28;20474;-58
2022/07/07 08:39:10;;;;;;;6.07;4.40;;;;;;;28.55;40.64;99262.84;5066158;28;20195;-58
2022/07/07 08:41:38;;;;;;;4.90;4.60;;;;;;;28.54;40.31;99255.88;5059586;28;20262;-57
2022/07/07 08:44:05;;;;;;;4.68;4.38;;;;;;;28.57;40.00;99261.81;5058831;28;20215;-57
2022/07/07 08:46:32;;;;;;;6.38;4.65;;;;;;;28.57;39.97;99256.53;5064126;28;20226;-58
2022/07/07 08:49:00;;;;;;;4.63;4.22;;;;;;;28.59;39.39;99259.09;5070285;28;20207;-58
2022/07/07 08:51:27;;;;;;;5.30;4.80;;;;;;;28.58;39.55;99255.59;5070184;28;20578;-58
2022/07/07 08:53:54;;;;;;;5.28;4.35;;;;;;;28.66;39.64;99256.00;5068712;28;20209;-58
2022/07/07 08:56:22;;;;;;;5.68;5.07;;;;;;;28.72;39.77;99254.78;5049944;28;20184;-59
2022/07/07 08:58:50;;;;;;;5.28;4.80;;;;;;;28.76;40.00;99251.00;5061365;28;20195;-58
2022/07/07 09:01:18;;;;;;;4.90;4.50;;;;;;;28.88;39.21;99252.03;5064813;28;20650;-58
2022/07/07 09:03:44;;;;;;;4.63;4.32;;;;;;;28.93;39.47;99261.38;5058886;28;20189;-58
2022/07/07 09:06:13;;;;;;;5.60;4.47;;;;;;;28.90;39.59;99258.91;5059583;28;20220;-58
2022/07/07 09:08:40;;;;;;;6.38;4.75;;;;;;;29.05;39.33;99263.28;5069943;28;20995;-58
2022/07/07 09:11:09;;;;;;;6.10;4.25;;;;;;;29.13;38.19;99262.78;5068748;28;20199;-59
2022/07/07 09:13:37;;;;;;;5.22;4.82;;;;;;;29.11;37.77;99256.75;5069792;28;20247;-58
2022/07/07 09:16:13;;;;;;;5.80;5.30;;;;;;;29.22;38.66;99255.16;5069504;28;20203;-58
2022/07/07 09:18:43;;;;;;;5.20;4.50;;;;;;;29.28;37.98;99251.28;5069718;28;20196;-58
2022/07/07 09:21:29;;;;;;;5.20;4.70;;;;;;;29.19;37.79;99239.44;5069496;28;20199;-58
2022/07/07 09:23:57;;;;;;;5.45;5.10;;;;;;;29.25;38.05;99240.88;5065635;28;20230;-58
2022/07/07 09:26:36;;;;;;;5.63;5.13;;;;;;;29.41;38.65;99246.88;5062307;28;20600;-58
2022/07/07 09:29:03;;;;;;;5.15;4.75;;;;;;;29.49;38.67;99246.38;5063070;28;20195;-57
2022/07/07 09:31:52;;;;;;;5.93;5.40;;;;;;;29.49;37.80;99247.22;5058207;28;20192;-58
2022/07/07 09:34:20;;;;;;;6.43;5.82;;;;;;;29.47;38.23;99240.34;5060687;28;20214;-58
2022/07/07 09:39:41;;;;;;;5.65;4.80;;;;;;;29.43;38.16;99237.03;5061497;28;20206;-57
2022/07/07 09:42:21;;;;;;;5.75;4.78;;;;;;;29.58;38.48;99219.31;5049480;28;20257;-59
2022/07/07 09:44:50;;;;;;;5.10;4.70;;;;;;;29.57;37.92;99229.03;5049586;28;20189;-59
2022/07/07 09:47:17;;;;;;;4.95;4.65;;;;;;;29.57;37.52;99230.84;5049489;28;20224;-59
2022/07/07 09:49:44;;;;;;;5.50;5.10;;;;;;;29.53;37.90;99232.00;5051376;28;20825;-59
2022/07/07 09:52:18;;;;;;;5.75;5.35;;;;;;;29.65;37.70;99216.16;5068693;28;20199;-58
2022/07/07 09:54:49;;;;;;;5.50;5.05;;;;;;;29.80;37.82;99220.44;5068876;28;20203;-59
2022/07/07 09:57:17;;;;;;;5.32;4.93;;;;;;;29.94;37.45;99216.03;5068768;28;20194;-58
2022/07/07 09:59:44;;;;;;;5.13;4.82;;;;;;;30.09;36.79;99220.28;5055061;28;20222;-58
2022/07/07 10:02:20;;;;;;;6.28;5.28;;;;;;;30.28;37.05;99210.13;5068366;28;20195;-59
2022/07/07 10:04:50;;;;;;;4.97;4.68;;;;;;;30.42;36.78;99212.72;5068752;28;20215;-58
2022/07/07 10:07:21;;;;;;;5.28;4.55;;;;;;;30.38;35.60;99216.56;5065862;28;20577;-59
2022/07/07 10:09:52;;;;;;;4.88;4.57;;;;;;;30.26;35.89;99217.34;5068729;28;20214;-62
2022/07/07 10:12:23;;;;;;;5.45;5.00;;;;;;;30.23;36.23;99204.31;5068916;28;20627;-59
2022/07/07 10:14:54;;;;;;;5.13;4.72;;;;;;;30.35;36.41;99206.13;5068565;28;20235;-59
2022/07/07 10:17:22;;;;;;;5.82;5.32;;;;;;;30.43;36.16;99209.13;5068159;28;20438;-58
2022/07/07 10:19:49;;;;;;;5.30;4.80;;;;;;;30.49;35.49;99203.38;5068840;28;20195;-59
2022/07/07 10:22:17;;;;;;;5.00;4.55;;;;;;;30.63;35.40;99202.44;5068219;28;20223;-59
2022/07/07 10:24:48;;;;;;;5.10;4.47;;;;;;;30.60;35.10;99203.47;5063419;28;20200;-59
2022/07/07 10:27:16;;;;;;;5.00;4.60;;;;;;;30.67;35.09;99207.41;5062935;28;20227;-58
2022/07/07 10:29:45;;;;;;;5.20;4.70;;;;;;;30.62;35.54;99206.03;5066949;28;20200;-58
2022/07/07 10:32:14;;;;;;;5.07;4.70;;;;;;;30.70;35.63;99204.53;5068666;28;20654;-59
2022/07/07 10:34:50;;;;;;;4.65;4.35;;;;;;;30.66;34.66;99200.38;5067377;28;20953;-58
2022/07/07 10:37:17;;;;;;;5.03;4.53;;;;;;;30.98;34.43;99187.53;5068301;28;20191;-64
2022/07/07 10:39:47;;;;;;;4.55;4.25;;;;;;;31.21;34.55;99196.44;5068172;28;20199;-58
2022/07/07 10:42:35;;;;;;;5.90;4.30;;;;;;;31.08;33.77;99193.00;5072354;28;20555;-58
2022/07/07 10:45:03;;;;;;;4.75;4.35;;;;;;;31.04;34.48;99187.06;5072087;28;20257;-58
2022/07/07 10:47:32;;;;;;;5.30;4.90;;;;;;;31.01;33.60;99194.41;5072087;28;20203;-58
2022/07/07 10:50:00;;;;;;;5.05;4.55;;;;;;;31.10;33.11;99191.06;5071874;28;20303;-58
2022/07/07 10:52:28;;;;;;;4.82;4.53;;;;;;;31.24;34.04;99191.78;5072218;28;20203;-58
2022/07/07 10:54:59;;;;;;;4.70;4.30;;;;;;;31.16;33.79;99185.31;5072011;28;20495;-58
2022/07/07 10:57:27;;;;;;;5.47;5.07;;;;;;;30.94;33.75;99189.53;5069840;28;20195;-58
2022/07/07 11:00:10;;;;;;;5.00;4.60;;;;;;;30.92;34.07;99190.63;5057591;28;20196;-62
2022/07/07 11:02:38;;;;;;;4.97;4.68;;;;;;;31.10;34.19;99176.00;5067836;28;20239;-63
2022/07/07 11:05:26;;;;;;;4.68;4.28;;;;;;;31.26;34.70;99173.09;5071459;28;20269;-64
2022/07/07 11:08:16;;;;;;;4.70;4.25;;;;;;;31.03;34.25;99181.88;5067415;28;20183;-63
2022/07/07 11:10:57;;;;;;;6.32;5.38;;;;;;;30.80;34.43;99176.38;5066880;28;20214;-63
2022/07/07 11:13:31;;;;;;;5.70;5.20;;;;;;;30.75;34.19;99185.63;5071692;28;20593;-64
2022/07/07 11:16:15;;;;;;;4.93;4.53;;;;;;;30.89;34.50;99178.38;5071730;28;20192;-62
2022/07/07 11:18:43;;;;;;;4.93;4.63;;;;;;;31.17;34.10;99179.06;5071466;28;20191;-64
2022/07/07 11:21:10;;;;;;;4.72;4.32;;;;;;;31.27;33.72;99172.97;5067196;28;20188;-63
2022/07/07 11:23:48;;;;;;;5.00;4.60;;;;;;;31.42;33.69;99173.66;5068609;28;20215;-63
2022/07/07 11:26:23;;;;;;;4.50;4.20;;;;;;;31.62;33.86;99170.38;5071632;28;20215;-63
2022/07/07 11:28:51;;;;;;;4.53;4.18;;;;;;;31.93;33.02;99158.25;5071592;28;20191;-65
2022/07/07 11:31:18;;;;;;;5.15;4.65;;;;;;;32.21;32.38;99157.88;5071613;28;20195;-64
2022/07/07 11:33:50;;;;;;;4.80;4.43;;;;;;;32.12;32.62;99163.91;5071178;28;20202;-64
2022/07/07 11:36:19;;;;;;;5.47;4.63;;;;;;;32.19;32.22;99157.16;5071252;28;20191;-57
2022/07/07 11:38:48;;;;;;;4.95;4.45;;;;;;;32.44;31.80;99164.06;5070816;28;20191;-57
2022/07/07 11:41:15;;;;;;;6.43;4.30;;;;;;;32.53;32.05;99153.56;5071350;28;20191;-58
2022/07/07 11:43:43;;;;;;;4.25;3.95;;;;;;;32.64;30.75;99160.69;5070994;28;20578;-57